Time;durP1;ratioP1;P1;durP2;ratioP2;P2;SDS_P1;SDS_P2;PMS_P1;PMS_P2;Temp;Humidity;BMP_temperature;BMP_pressure;BME280_temperature;BME280_humidity;BME280_pressure;Samples;Min_cycle;Max_cycle;Signal;HPM_P1;HPM_P2
2022/12/05 00:02:09;;;;;;;54.10;27.93;;;4.80;99.90;;;;;;5047206;28;20206;-31
2022/12/05 00:04:36;;;;;;;53.87;27.97;;;4.80;99.90;;;;;;5046918;28;20235;-30
2022/12/05 00:07:06;;;;;;;55.33;29.33;;;4.90;99.90;;;;;;5046935;28;20192;-31
2022/12/05 00:09:33;;;;;;;50.03;26.93;;;4.90;99.90;;;;;;5046943;28;20250;-31
2022/12/05 00:12:03;;;;;;;55.90;29.87;;;4.90;99.90;;;;;;5046250;28;20659;-31
2022/12/05 00:14:30;;;;;;;54.20;29.10;;;4.90;99.90;;;;;;5047129;28;20231;-31
2022/12/05 00:16:57;;;;;;;64.47;29.87;;;4.90;99.90;;;;;;5047091;28;20205;-30
2022/12/05 00:19:24;;;;;;;55.07;29.73;;;4.90;99.90;;;;;;5047206;28;20270;-31
2022/12/05 00:21:58;;;;;;;52.07;29.23;;;4.90;99.90;;;;;;5046441;28;20231;-31
2022/12/05 00:24:25;;;;;;;51.60;28.33;;;4.90;99.90;;;;;;5046470;28;20199;-31
2022/12/05 00:26:52;;;;;;;48.90;28.13;;;4.90;99.90;;;;;;5047017;28;20254;-30
2022/12/05 00:29:22;;;;;;;58.00;29.47;;;4.90;99.90;;;;;;5046731;28;20206;-31
2022/12/05 00:31:49;;;;;;;52.10;28.30;;;4.90;99.90;;;;;;5046945;28;20283;-30
2022/12/05 00:34:16;;;;;;;51.40;28.10;;;4.90;99.90;;;;;;5046230;28;20204;-31
2022/12/05 00:36:46;;;;;;;53.93;29.77;;;4.90;99.90;;;;;;5046247;28;20192;-31
2022/12/05 00:39:14;;;;;;;53.27;29.53;;;4.90;99.90;;;;;;5046594;28;20220;-31
2022/12/05 00:41:42;;;;;;;53.10;29.07;;;4.80;99.90;;;;;;5046498;28;20490;-30
2022/12/05 00:44:11;;;;;;;54.97;28.77;;;4.80;99.90;;;;;;5046616;28;20222;-31
2022/12/05 00:46:41;;;;;;;53.57;29.33;;;4.80;99.90;;;;;;5044743;28;20613;-30
2022/12/05 00:49:10;;;;;;;53.83;30.03;;;4.80;99.90;;;;;;5045285;28;20263;-31
2022/12/05 00:51:40;;;;;;;51.13;27.43;;;4.80;99.90;;;;;;5046578;28;20203;-30
2022/12/05 00:54:11;;;;;;;58.07;29.00;;;4.80;99.90;;;;;;5046646;28;20200;-30
2022/12/05 00:56:39;;;;;;;51.77;27.53;;;4.80;99.90;;;;;;5046382;28;20243;-31
2022/12/05 00:59:06;;;;;;;56.63;29.43;;;4.80;99.90;;;;;;5046543;28;20200;-31
2022/12/05 01:01:39;;;;;;;54.17;29.20;;;4.80;99.90;;;;;;5046274;28;20319;-31
2022/12/05 01:04:11;;;;;;;56.17;29.17;;;4.80;99.90;;;;;;5044815;28;20204;-31
2022/12/05 01:06:39;;;;;;;59.70;31.00;;;4.80;99.90;;;;;;5044604;28;20303;-31
2022/12/05 01:09:10;;;;;;;55.53;30.47;;;4.80;99.90;;;;;;5045074;28;20208;-31
2022/12/05 01:11:39;;;;;;;59.07;30.37;;;4.80;99.90;;;;;;5046408;28;20291;-31
2022/12/05 01:14:11;;;;;;;57.33;29.23;;;4.80;99.90;;;;;;5046325;28;20246;-31
2022/12/05 01:16:43;;;;;;;59.97;30.23;;;4.80;99.90;;;;;;5044445;28;20330;-31
2022/12/05 01:19:14;;;;;;;56.87;29.47;;;4.80;99.90;;;;;;5045995;28;20204;-31
2022/12/05 01:21:41;;;;;;;59.30;29.07;;;4.80;99.90;;;;;;5045958;28;20337;-31
2022/12/05 01:24:11;;;;;;;53.33;29.80;;;4.80;99.90;;;;;;5048418;28;20212;-30
2022/12/05 01:26:40;;;;;;;52.90;28.10;;;4.80;99.90;;;;;;5050495;28;20897;-30
2022/12/05 01:29:12;;;;;;;47.70;27.27;;;4.80;99.90;;;;;;5050590;28;20283;-31
2022/12/05 01:31:41;;;;;;;53.27;28.03;;;4.80;99.90;;;;;;5048910;28;20690;-31
2022/12/05 01:34:17;;;;;;;52.63;28.30;;;4.90;99.90;;;;;;5050139;28;20208;-31
2022/12/05 01:36:45;;;;;;;59.70;31.20;;;4.90;99.90;;;;;;5049950;28;20204;-31
2022/12/05 01:39:16;;;;;;;58.33;29.73;;;4.90;99.90;;;;;;5049662;28;20581;-31
2022/12/05 01:41:48;;;;;;;52.50;28.73;;;4.90;99.90;;;;;;5048395;28;20318;-31
2022/12/05 01:44:16;;;;;;;55.47;29.83;;;4.90;99.90;;;;;;5048751;28;20275;-31
2022/12/05 01:46:51;;;;;;;60.80;30.80;;;4.90;99.90;;;;;;5048626;28;20498;-30
2022/12/05 01:49:38;;;;;;;56.90;29.03;;;5.00;99.90;;;;;;5048307;28;20590;-30
2022/12/05 01:52:17;;;;;;;58.60;30.77;;;5.00;99.90;;;;;;5050073;28;20203;-31
2022/12/05 01:54:49;;;;;;;59.63;30.40;;;4.90;99.90;;;;;;5049768;28;20845;-31
2022/12/05 01:57:17;;;;;;;63.67;30.30;;;4.90;99.90;;;;;;5049717;28;20216;-31
2022/12/05 01:59:50;;;;;;;58.73;29.87;;;5.00;99.90;;;;;;5066212;28;20290;-31
2022/12/05 02:02:18;;;;;;;57.63;29.17;;;5.00;99.90;;;;;;5069065;28;20203;-31
2022/12/05 02:05:25;;;;;;;59.67;29.63;;;5.00;99.90;;;;;;5057281;28;20242;-31
2022/12/05 02:07:53;;;;;;;54.57;30.40;;;5.00;99.90;;;;;;5065176;28;20530;-31
2022/12/05 02:10:20;;;;;;;56.90;29.33;;;5.00;99.90;;;;;;5069172;28;20219;-31
2022/12/05 02:12:50;;;;;;;62.87;30.20;;;5.00;99.90;;;;;;5068797;28;20245;-31
2022/12/05 02:15:32;;;;;;;60.30;30.13;;;5.00;99.90;;;;;;5068759;28;20211;-31
2022/12/05 02:18:24;;;;;;;56.93;29.47;;;5.00;99.90;;;;;;5068796;28;20210;-31
2022/12/05 02:21:09;;;;;;;55.77;30.10;;;5.00;99.90;;;;;;5069129;28;20300;-31
2022/12/05 02:23:48;;;;;;;57.53;30.03;;;5.00;99.90;;;;;;5068715;28;20215;-31
2022/12/05 02:26:21;;;;;;;55.07;28.37;;;5.00;99.90;;;;;;5068893;28;20199;-31
2022/12/05 02:29:03;;;;;;;58.43;29.07;;;5.00;99.90;;;;;;5067063;28;20572;-30
2022/12/05 02:31:46;;;;;;;58.93;28.83;;;5.00;99.90;;;;;;5067301;28;20289;-30
2022/12/05 02:34:32;;;;;;;61.70;30.87;;;5.00;99.90;;;;;;5068169;28;20709;-31
2022/12/05 02:37:17;;;;;;;54.17;28.57;;;5.00;99.90;;;;;;5068100;28;20720;-31
2022/12/05 02:39:55;;;;;;;59.30;29.73;;;5.00;99.90;;;;;;5068556;28;20253;-32
2022/12/05 02:42:41;;;;;;;54.07;29.10;;;5.00;99.90;;;;;;5068397;28;20636;-31
2022/12/05 02:45:15;;;;;;;58.90;30.63;;;5.00;99.90;;;;;;5068555;28;20290;-31
2022/12/05 02:47:46;;;;;;;56.50;28.80;;;5.00;99.90;;;;;;5066574;28;20678;-31
2022/12/05 02:50:18;;;;;;;62.20;31.27;;;5.00;99.90;;;;;;5068016;28;20235;-31
2022/12/05 02:52:52;;;;;;;55.63;29.17;;;5.00;99.90;;;;;;5068128;28;20588;-31
2022/12/05 02:55:23;;;;;;;60.30;29.30;;;5.00;99.90;;;;;;5067881;28;20196;-31
2022/12/05 02:57:57;;;;;;;57.57;30.77;;;4.90;99.90;;;;;;5067840;28;20712;-31
2022/12/05 03:00:27;;;;;;;56.10;30.40;;;4.90;99.90;;;;;;5066188;28;20322;-31
2022/12/05 03:03:00;;;;;;;60.27;32.10;;;5.00;99.90;;;;;;5068026;28;20211;-31
2022/12/05 03:06:00;;;;;;;58.27;28.23;;;4.90;99.90;;;;;;5067709;28;20194;-31
2022/12/05 03:08:59;;;;;;;66.37;31.43;;;4.90;99.90;;;;;;5067584;28;20199;-31
2022/12/05 03:11:39;;;;;;;61.50;30.90;;;4.90;99.90;;;;;;5068063;28;20237;-31
2022/12/05 03:14:16;;;;;;;49.27;26.83;;;4.90;99.90;;;;;;5067620;28;20589;-31
2022/12/05 03:16:56;;;;;;;57.70;30.77;;;4.90;99.90;;;;;;5067236;28;20686;-31
2022/12/05 03:19:33;;;;;;;56.80;28.70;;;4.90;99.90;;;;;;5067360;28;20222;-31
2022/12/05 03:22:23;;;;;;;50.27;27.73;;;4.90;99.90;;;;;;5067320;28;20740;-31
2022/12/05 03:24:57;;;;;;;53.17;26.73;;;5.00;99.90;;;;;;5067345;28;20708;-31
2022/12/05 03:27:51;;;;;;;61.97;29.27;;;5.00;99.90;;;;;;5067111;28;20614;-31
2022/12/05 03:30:21;;;;;;;59.73;27.97;;;5.00;99.90;;;;;;5067195;28;20219;-32
2022/12/05 03:33:20;;;;;;;57.07;28.53;;;5.00;99.90;;;;;;5067152;28;20210;-31
2022/12/05 03:36:05;;;;;;;58.47;29.17;;;5.00;99.90;;;;;;5066555;28;20257;-31
2022/12/05 03:38:56;;;;;;;51.43;27.43;;;4.90;99.90;;;;;;5067108;28;20310;-31
2022/12/05 03:41:40;;;;;;;55.87;27.90;;;4.90;99.90;;;;;;5065810;28;20559;-31
2022/12/05 03:44:28;;;;;;;52.47;29.50;;;4.90;99.90;;;;;;5067230;28;20538;-31
2022/12/05 03:47:16;;;;;;;52.90;29.43;;;4.90;99.90;;;;;;5066983;28;20229;-31
2022/12/05 03:49:55;;;;;;;48.10;27.90;;;4.90;99.90;;;;;;5066807;28;20676;-31
2022/12/05 03:52:34;;;;;;;58.30;28.87;;;4.90;99.90;;;;;;5066576;28;20227;-31
2022/12/05 03:55:25;;;;;;;54.80;29.23;;;4.90;99.90;;;;;;5067137;28;20199;-32
2022/12/05 03:58:09;;;;;;;54.10;29.30;;;4.90;99.90;;;;;;5067146;28;20656;-31
2022/12/05 04:00:46;;;;;;;55.27;27.67;;;4.90;99.90;;;;;;5065139;28;20322;-31
2022/12/05 04:03:24;;;;;;;52.33;28.10;;;4.90;99.90;;;;;;5066519;28;20215;-32
2022/12/05 04:05:55;;;;;;;55.33;29.10;;;4.90;99.90;;;;;;5066885;28;20187;-32
2022/12/05 04:08:39;;;;;;;47.13;26.63;;;4.80;99.90;;;;;;5064988;28;20203;-31
2022/12/05 04:11:15;;;;;;;55.47;28.67;;;4.80;99.90;;;;;;5066338;28;20216;-32
2022/12/05 04:13:50;;;;;;;55.50;28.67;;;4.80;99.90;;;;;;5064753;28;20206;-31
2022/12/05 04:19:23;;;;;;;54.93;29.00;;;4.80;99.90;;;;;;5066209;28;20580;-32
2022/12/05 04:21:53;;;;;;;55.17;29.60;;;4.80;99.90;;;;;;5066030;28;20694;-31
2022/12/05 04:27:45;;;;;;;59.07;29.73;;;4.80;99.90;;;;;;5043226;28;20545;-31
2022/12/05 04:30:23;;;;;;;57.13;29.83;;;4.70;99.90;;;;;;5043189;28;20699;-32
2022/12/05 04:33:08;;;;;;;56.73;29.73;;;4.70;99.90;;;;;;5057146;28;20235;-32
2022/12/05 04:36:02;;;;;;;55.47;30.10;;;4.70;99.90;;;;;;5066521;28;20203;-32
2022/12/05 04:38:42;;;;;;;63.20;31.87;;;4.70;99.90;;;;;;5066396;28;20287;-32
2022/12/05 04:41:20;;;;;;;63.47;31.87;;;4.70;99.90;;;;;;5066511;28;20770;-32
2022/12/05 04:43:52;;;;;;;54.53;30.07;;;4.80;99.90;;;;;;5066421;28;20203;-32
2022/12/05 04:46:24;;;;;;;57.43;29.97;;;4.80;99.90;;;;;;5066661;28;20708;-32
2022/12/05 04:48:59;;;;;;;63.03;31.13;;;4.80;99.90;;;;;;5066316;28;20199;-31
2022/12/05 04:51:31;;;;;;;57.33;30.37;;;4.80;99.90;;;;;;5066487;28;20230;-31
2022/12/05 04:54:26;;;;;;;59.23;32.47;;;4.80;99.90;;;;;;5064566;28;20302;-32
2022/12/05 04:57:20;;;;;;;61.97;30.87;;;4.80;99.90;;;;;;5065850;28;20567;-32
2022/12/05 04:59:50;;;;;;;63.43;31.40;;;4.80;99.90;;;;;;5065658;28;20199;-31
2022/12/05 05:02:29;;;;;;;62.60;31.50;;;4.80;99.90;;;;;;5065870;28;20747;-32
2022/12/05 05:05:01;;;;;;;61.47;30.87;;;4.80;99.90;;;;;;5065635;28;20219;-31
2022/12/05 05:07:28;;;;;;;57.00;30.63;;;4.80;99.90;;;;;;5047714;28;20203;-32
2022/12/05 05:10:00;;;;;;;61.33;31.50;;;4.80;99.90;;;;;;5065864;28;20196;-31
2022/12/05 05:12:27;;;;;;;70.60;30.80;;;4.80;99.90;;;;;;5065613;28;20222;-31
2022/12/05 05:14:57;;;;;;;63.07;31.73;;;4.80;99.90;;;;;;5065494;28;20203;-32
2022/12/05 05:17:24;;;;;;;61.83;31.77;;;4.80;99.90;;;;;;5066148;28;20214;-32
2022/12/05 05:20:22;;;;;;;60.93;30.23;;;4.80;99.90;;;;;;5065532;28;20313;-32
2022/12/05 05:22:47;;;;;;;52.40;28.77;;;4.80;99.90;;;;;;5066102;28;20732;-31
2022/12/05 05:25:17;;;;;;;63.83;31.87;;;4.90;99.90;;;;;;5065772;28;20290;-31
2022/12/05 05:27:52;;;;;;;70.07;33.00;;;4.90;99.90;;;;;;5065379;28;20210;-32
2022/12/05 05:30:21;;;;;;;58.93;30.10;;;4.80;99.90;;;;;;5066484;28;20249;-31
2022/12/05 05:32:54;;;;;;;61.93;30.67;;;4.80;99.90;;;;;;5066498;28;20214;-31
2022/12/05 05:35:21;;;;;;;57.33;28.73;;;4.90;99.90;;;;;;5066195;28;20280;-31
2022/12/05 05:37:52;;;;;;;66.50;30.93;;;4.90;99.90;;;;;;5066029;28;20219;-31
2022/12/05 05:40:22;;;;;;;59.20;30.47;;;4.90;99.90;;;;;;5065934;28;20269;-31
2022/12/05 05:42:49;;;;;;;64.10;30.97;;;4.90;99.90;;;;;;5065791;28;20310;-31
2022/12/05 05:45:17;;;;;;;54.07;28.00;;;4.90;99.90;;;;;;5065963;28;20195;-31
2022/12/05 05:47:48;;;;;;;55.37;29.37;;;4.90;99.90;;;;;;5064601;28;20307;-31
2022/12/05 05:50:16;;;;;;;59.53;30.47;;;4.90;99.90;;;;;;5064266;28;20603;-31
2022/12/05 05:52:48;;;;;;;61.87;28.70;;;4.90;99.90;;;;;;5065748;28;20234;-31
2022/12/05 05:55:15;;;;;;;60.47;30.30;;;4.90;99.90;;;;;;5065474;28;20223;-33
2022/12/05 05:57:47;;;;;;;60.13;28.60;;;4.90;99.90;;;;;;5065881;28;20708;-34
2022/12/05 06:00:15;;;;;;;54.37;28.60;;;5.00;99.90;;;;;;5064364;28;20696;-33
2022/12/05 06:02:42;;;;;;;47.50;26.53;;;5.00;99.90;;;;;;5064232;28;20216;-33
2022/12/05 06:05:11;;;;;;;55.80;27.90;;;5.00;99.90;;;;;;5065427;28;20212;-34
2022/12/05 06:07:41;;;;;;;54.83;29.20;;;5.00;99.90;;;;;;5065914;28;20624;-33
2022/12/05 06:10:08;;;;;;;57.17;28.90;;;5.10;99.90;;;;;;5064524;28;20207;-31
2022/12/05 06:12:35;;;;;;;55.10;27.50;;;5.10;99.90;;;;;;5069027;28;20277;-31
2022/12/05 06:15:05;;;;;;;52.63;27.60;;;5.10;99.90;;;;;;5069063;28;20286;-31
2022/12/05 06:17:32;;;;;;;56.37;28.20;;;5.10;99.90;;;;;;5069095;28;20678;-31
2022/12/05 06:19:59;;;;;;;55.07;30.50;;;5.10;99.90;;;;;;5069257;28;20238;-31
2022/12/05 06:22:28;;;;;;;51.93;27.70;;;5.10;99.90;;;;;;5067742;28;20222;-31
2022/12/05 06:24:57;;;;;;;49.07;27.43;;;5.10;99.90;;;;;;5068861;28;20561;-31
2022/12/05 06:27:28;;;;;;;50.50;26.53;;;5.10;99.90;;;;;;5069100;28;20314;-31
2022/12/05 06:29:57;;;;;;;53.80;28.20;;;5.10;99.90;;;;;;5068952;28;20210;-31
2022/12/05 06:32:27;;;;;;;53.23;28.20;;;5.20;99.90;;;;;;5067446;28;20253;-30
2022/12/05 06:34:54;;;;;;;53.03;27.07;;;5.20;99.90;;;;;;5069021;28;20269;-31
2022/12/05 06:37:24;;;;;;;57.40;29.23;;;5.20;99.90;;;;;;5068658;28;20207;-31
2022/12/05 06:39:51;;;;;;;53.67;27.77;;;5.10;99.90;;;;;;5068312;28;20720;-31
2022/12/05 06:42:21;;;;;;;49.63;27.03;;;5.10;99.90;;;;;;5067160;28;20254;-31
2022/12/05 06:44:48;;;;;;;53.60;28.07;;;5.10;99.90;;;;;;5068807;28;20198;-31
2022/12/05 06:47:15;;;;;;;47.97;26.47;;;5.10;99.90;;;;;;5068661;28;20613;-30
2022/12/05 06:49:47;;;;;;;53.20;27.13;;;5.10;99.90;;;;;;5068690;28;20238;-32
2022/12/05 06:52:14;;;;;;;55.43;27.60;;;5.10;99.90;;;;;;5066470;28;20670;-32
2022/12/05 06:54:46;;;;;;;55.40;26.00;;;5.10;99.90;;;;;;5068071;28;20282;-32
2022/12/05 06:57:17;;;;;;;45.10;25.93;;;5.10;99.90;;;;;;5066754;28;20215;-32
2022/12/05 06:59:49;;;;;;;45.57;25.40;;;5.10;99.90;;;;;;5068001;28;20249;-32
2022/12/05 07:02:18;;;;;;;49.63;26.77;;;5.20;99.90;;;;;;5068115;28;20338;-32
2022/12/05 07:04:45;;;;;;;50.60;27.33;;;5.20;99.90;;;;;;5068323;28;20667;-32
2022/12/05 07:07:15;;;;;;;50.33;26.47;;;5.20;99.90;;;;;;5067743;28;20790;-32
2022/12/05 07:09:46;;;;;;;47.77;26.20;;;5.20;99.90;;;;;;5068281;28;20318;-32
2022/12/05 07:12:16;;;;;;;50.57;26.67;;;5.20;99.90;;;;;;5067692;28;20494;-33
2022/12/05 07:14:47;;;;;;;48.23;26.63;;;5.20;99.90;;;;;;5068175;28;20697;-32
2022/12/05 07:17:20;;;;;;;53.50;27.40;;;5.20;99.90;;;;;;5068219;28;20199;-32
2022/12/05 07:19:51;;;;;;;49.80;26.77;;;5.20;99.90;;;;;;5068611;28;20248;-32
2022/12/05 07:22:23;;;;;;;48.73;25.60;;;5.20;99.90;;;;;;5067713;28;20668;-32
2022/12/05 07:24:53;;;;;;;47.30;25.93;;;5.20;99.90;;;;;;5066343;28;20239;-32
2022/12/05 07:27:22;;;;;;;49.20;26.30;;;5.20;99.90;;;;;;5067656;28;20646;-32
2022/12/05 07:29:56;;;;;;;45.93;25.83;;;5.20;99.90;;;;;;5067849;28;20199;-32
2022/12/05 07:32:32;;;;;;;45.70;25.73;;;5.20;99.90;;;;;;5067680;28;20204;-31
2022/12/05 07:34:59;;;;;;;50.80;25.77;;;5.20;99.90;;;;;;5049507;28;20252;-31
2022/12/05 07:37:27;;;;;;;41.03;24.27;;;5.20;99.90;;;;;;5066032;28;20229;-33
2022/12/05 07:39:54;;;;;;;40.57;23.80;;;5.20;99.90;;;;;;5065899;28;20689;-33
2022/12/05 07:42:21;;;;;;;41.90;23.50;;;5.20;99.90;;;;;;5067481;28;20726;-32
2022/12/05 07:44:51;;;;;;;44.80;24.13;;;5.20;99.90;;;;;;5067578;28;20200;-32
2022/12/05 07:47:18;;;;;;;43.67;24.63;;;5.20;99.90;;;;;;5067269;28;20254;-33
2022/12/05 07:49:50;;;;;;;42.83;22.67;;;5.30;99.90;;;;;;5066631;28;20263;-33
2022/12/05 07:52:17;;;;;;;38.93;22.37;;;5.30;99.90;;;;;;5067408;28;20231;-32
2022/12/05 07:54:44;;;;;;;41.13;24.20;;;5.30;99.90;;;;;;5067294;28;20196;-31
2022/12/05 07:57:12;;;;;;;43.07;22.87;;;5.30;99.90;;;;;;5066951;28;20678;-32
2022/12/05 07:59:39;;;;;;;39.53;23.27;;;5.30;99.90;;;;;;5066745;28;20202;-32
2022/12/05 08:02:10;;;;;;;34.97;21.53;;;5.30;99.90;;;;;;5066792;28;20277;-32
2022/12/05 08:04:42;;;;;;;39.73;22.43;;;5.30;99.90;;;;;;5065559;28;20226;-32
2022/12/05 08:07:10;;;;;;;38.77;21.93;;;5.30;99.90;;;;;;5065792;28;20199;-31
2022/12/05 08:09:40;;;;;;;38.97;21.93;;;5.30;99.90;;;;;;5065431;28;20260;-31
2022/12/05 08:12:09;;;;;;;32.47;20.93;;;5.30;99.90;;;;;;5066693;28;20200;-31
2022/12/05 08:14:39;;;;;;;34.23;21.60;;;5.30;99.90;;;;;;5067137;28;20306;-31
2022/12/05 08:17:08;;;;;;;39.17;21.97;;;5.40;99.90;;;;;;5067460;28;20199;-31
2022/12/05 08:19:36;;;;;;;41.40;23.63;;;5.40;99.90;;;;;;5065356;28;20652;-31
2022/12/05 08:22:03;;;;;;;40.60;23.87;;;5.40;99.90;;;;;;5066724;28;20672;-31
2022/12/05 08:24:30;;;;;;;38.03;22.17;;;5.40;99.90;;;;;;5066471;28;20631;-31
2022/12/05 08:27:03;;;;;;;37.73;23.03;;;5.50;99.90;;;;;;5065093;28;20237;-31
2022/12/05 08:29:31;;;;;;;38.50;22.43;;;5.40;99.90;;;;;;5066305;28;20478;-31
2022/12/05 08:31:58;;;;;;;45.07;23.30;;;5.50;99.90;;;;;;5067177;28;20207;-31
2022/12/05 08:34:25;;;;;;;41.03;22.83;;;5.50;99.90;;;;;;5065726;28;20207;-31
2022/12/05 08:36:56;;;;;;;40.67;23.47;;;5.50;99.90;;;;;;5066643;28;20195;-32
2022/12/05 08:39:26;;;;;;;35.80;21.73;;;5.40;99.90;;;;;;5066726;28;20575;-31
2022/12/05 08:41:53;;;;;;;34.07;21.93;;;5.50;99.90;;;;;;5064834;28;20219;-31
2022/12/05 08:44:26;;;;;;;34.60;22.00;;;5.50;99.90;;;;;;5064907;28;20195;-31
2022/12/05 08:46:53;;;;;;;35.43;21.43;;;5.50;99.90;;;;;;5066303;28;20199;-31
2022/12/05 08:49:20;;;;;;;36.03;22.73;;;5.50;99.90;;;;;;5066276;28;20317;-31
2022/12/05 08:51:47;;;;;;;41.53;23.27;;;5.50;99.90;;;;;;5064675;28;20227;-31
2022/12/05 08:54:16;;;;;;;36.03;21.40;;;5.60;99.90;;;;;;5064474;28;20227;-30
2022/12/05 08:56:44;;;;;;;36.53;22.77;;;5.60;99.90;;;;;;5066059;28;20216;-31
2022/12/05 08:59:11;;;;;;;39.57;22.93;;;5.60;99.90;;;;;;5066393;28;20207;-31
2022/12/05 09:01:41;;;;;;;38.00;22.60;;;5.60;99.90;;;;;;5066200;28;20211;-32
2022/12/05 09:04:11;;;;;;;37.37;21.57;;;5.60;99.90;;;;;;5065902;28;20195;-32
2022/12/05 09:06:39;;;;;;;36.30;21.63;;;5.60;99.90;;;;;;5066118;28;20721;-31
2022/12/05 09:09:10;;;;;;;34.43;21.57;;;5.60;99.90;;;;;;5065846;28;20208;-31
2022/12/05 09:11:44;;;;;;;36.87;22.13;;;5.60;99.90;;;;;;5064040;28;20202;-31
2022/12/05 09:14:12;;;;;;;37.90;22.37;;;5.70;99.90;;;;;;5065614;28;20203;-31
2022/12/05 09:16:43;;;;;;;36.47;21.90;;;5.70;99.90;;;;;;5065757;28;20222;-31
2022/12/05 09:19:23;;;;;;;38.67;22.10;;;5.70;99.90;;;;;;5064314;28;20196;-31
2022/12/05 09:21:50;;;;;;;37.43;21.67;;;5.70;99.90;;;;;;5065517;28;20577;-31
2022/12/05 09:24:18;;;;;;;36.10;22.03;;;5.70;99.90;;;;;;5065402;28;20211;-31
2022/12/05 09:26:45;;;;;;;39.03;22.83;;;5.70;99.90;;;;;;5065245;28;20234;-31
2022/12/05 09:29:15;;;;;;;34.43;22.00;;;5.70;99.90;;;;;;5065334;28;20350;-32
2022/12/05 09:31:46;;;;;;;33.60;21.57;;;5.70;99.90;;;;;;5065111;28;20208;-31
2022/12/05 09:34:14;;;;;;;33.90;21.93;;;5.70;99.90;;;;;;5066049;28;20281;-31
2022/12/05 09:36:42;;;;;;;34.83;22.77;;;5.70;99.90;;;;;;5065370;28;20694;-31
2022/12/05 09:39:10;;;;;;;34.00;21.70;;;5.70;99.90;;;;;;5065922;28;20220;-31
2022/12/05 09:42:03;;;;;;;34.17;21.93;;;5.80;99.90;;;;;;5064106;28;20226;-31
2022/12/05 09:44:41;;;;;;;37.10;23.13;;;5.80;99.90;;;;;;5065494;28;20191;-31
2022/12/05 09:47:18;;;;;;;41.97;23.53;;;5.80;99.90;;;;;;5068220;28;20697;-31
2022/12/05 09:50:01;;;;;;;34.47;23.47;;;5.80;99.90;;;;;;5069624;28;20235;-32
2022/12/05 09:52:43;;;;;;;36.43;23.43;;;5.80;99.90;;;;;;5069432;28;20203;-32
2022/12/05 09:55:17;;;;;;;33.30;21.47;;;5.80;99.90;;;;;;5069738;28;20206;-31
2022/12/05 09:57:56;;;;;;;35.73;21.13;;;5.80;99.90;;;;;;5069281;28;20560;-32
2022/12/05 10:00:29;;;;;;;35.20;20.47;;;5.90;99.90;;;;;;5069147;28;20737;-30
2022/12/05 10:03:26;;;;;;;34.13;21.33;;;5.90;99.90;;;;;;5068903;28;20311;-31
2022/12/05 10:05:59;;;;;;;33.93;20.57;;;5.80;99.90;;;;;;5069101;28;20652;-31
2022/12/05 10:08:46;;;;;;;27.90;19.57;;;5.90;99.90;;;;;;5068835;28;20677;-32
2022/12/05 10:11:21;;;;;;;29.70;18.37;;;5.90;99.90;;;;;;5068534;28;20191;-31
2022/12/05 10:14:03;;;;;;;31.27;19.37;;;5.90;99.90;;;;;;5067551;28;20203;-31
2022/12/05 10:16:37;;;;;;;30.70;19.33;;;6.00;99.90;;;;;;5067530;28;20214;-31
2022/12/05 10:19:32;;;;;;;28.73;20.13;;;6.00;99.90;;;;;;5068842;28;20203;-31
2022/12/05 10:22:27;;;;;;;34.60;23.00;;;6.10;99.90;;;;;;5067121;28;20272;-31
2022/12/05 10:25:00;;;;;;;33.90;23.13;;;6.10;99.90;;;;;;5068683;28;20200;-31
2022/12/05 10:27:40;;;;;;;31.00;22.60;;;6.10;99.90;;;;;;5068488;28;20248;-31
2022/12/05 10:30:20;;;;;;;33.90;23.13;;;6.00;99.90;;;;;;5068328;28;20261;-31
2022/12/05 10:33:02;;;;;;;31.73;22.10;;;6.00;99.90;;;;;;5068435;28;20199;-31
2022/12/05 10:35:37;;;;;;;30.73;21.70;;;6.00;99.90;;;;;;5068450;28;20235;-32
2022/12/05 10:38:15;;;;;;;31.47;21.60;;;6.00;99.90;;;;;;5068552;28;20200;-31
2022/12/05 10:40:47;;;;;;;31.00;20.80;;;6.00;99.90;;;;;;5068046;28;20235;-31
2022/12/05 10:43:28;;;;;;;27.37;19.43;;;6.00;99.90;;;;;;5067830;28;20223;-31
2022/12/05 10:45:56;;;;;;;30.33;19.67;;;6.00;99.90;;;;;;5068247;28;20201;-31
2022/12/05 10:48:23;;;;;;;23.73;17.27;;;6.00;99.90;;;;;;5066654;28;20286;-31
2022/12/05 10:50:56;;;;;;;23.40;16.90;;;6.00;99.90;;;;;;5067551;28;20262;-31
2022/12/05 10:53:27;;;;;;;22.83;16.00;;;6.00;99.90;;;;;;5067446;28;20293;-31
2022/12/05 10:55:56;;;;;;;22.83;15.93;;;6.00;99.90;;;;;;5066865;28;20957;-31
2022/12/05 10:58:56;;;;;;;20.17;14.70;;;5.90;99.90;;;;;;5067754;28;20499;-30
2022/12/05 11:01:28;;;;;;;18.17;14.33;;;5.90;99.90;;;;;;5050135;28;20233;-31
2022/12/05 11:03:59;;;;;;;20.13;14.13;;;5.90;99.90;;;;;;5067655;28;20225;-31
2022/12/05 11:06:31;;;;;;;19.03;13.60;;;5.90;99.90;;;;;;5068602;28;20191;-31
2022/12/05 11:09:11;;;;;;;19.10;14.17;;;5.90;99.90;;;;;;5066771;28;20198;-31
2022/12/05 11:11:38;;;;;;;17.77;14.30;;;5.90;99.90;;;;;;5066145;28;20253;-31
2022/12/05 11:14:24;;;;;;;19.30;13.57;;;5.90;99.90;;;;;;5067277;28;20619;-31
2022/12/05 11:16:57;;;;;;;17.73;13.23;;;5.90;99.90;;;;;;5065975;28;20322;-31
2022/12/05 11:19:33;;;;;;;18.70;14.10;;;5.90;99.90;;;;;;5067657;28;20212;-31
2022/12/05 11:22:04;;;;;;;15.43;11.73;;;5.90;99.90;;;;;;5067661;28;20203;-32
2022/12/05 11:24:35;;;;;;;16.80;12.10;;;6.00;99.90;;;;;;5068077;28;20287;-31
2022/12/05 11:27:15;;;;;;;15.80;12.13;;;6.00;99.90;;;;;;5067825;28;20299;-31
2022/12/05 11:30:03;;;;;;;18.27;12.27;;;6.10;99.90;;;;;;5066348;28;20614;-31
2022/12/05 11:32:35;;;;;;;16.23;12.13;;;6.00;99.90;;;;;;5067253;28;20298;-32
2022/12/05 11:35:16;;;;;;;16.33;12.63;;;6.00;99.90;;;;;;5066859;28;20192;-32
2022/12/05 11:38:04;;;;;;;17.17;12.23;;;6.00;99.90;;;;;;5067842;28;20216;-32
2022/12/05 11:40:40;;;;;;;13.90;10.97;;;6.00;99.90;;;;;;5067377;28;20291;-31
2022/12/05 11:43:44;;;;;;;15.60;11.40;;;6.00;99.90;;;;;;5067372;28;20822;-32
2022/12/05 11:46:22;;;;;;;17.30;12.30;;;6.00;99.90;;;;;;5067249;28;20211;-31
2022/12/05 11:48:59;;;;;;;15.07;12.00;;;6.10;99.90;;;;;;5067177;28;20764;-31
2022/12/05 11:51:38;;;;;;;15.50;12.13;;;6.10;99.90;;;;;;5067076;28;20286;-31
2022/12/05 11:54:20;;;;;;;15.87;11.57;;;6.10;99.90;;;;;;5066873;28;20204;-31
2022/12/05 11:57:13;;;;;;;15.80;12.00;;;6.10;99.90;;;;;;5067007;28;20198;-32
2022/12/05 12:00:01;;;;;;;14.73;11.47;;;6.20;99.90;;;;;;5066961;28;20593;-32
2022/12/05 12:02:29;;;;;;;15.00;11.40;;;6.10;99.90;;;;;;5067290;28;20239;-31
2022/12/05 12:05:11;;;;;;;14.80;10.90;;;6.20;99.90;;;;;;5067015;28;20307;-34
2022/12/05 12:08:06;;;;;;;12.50;11.03;;;6.20;99.90;;;;;;5066004;28;20206;-33
2022/12/05 12:11:05;;;;;;;14.53;10.83;;;6.30;99.90;;;;;;5067087;28;20200;-32
2022/12/05 12:13:41;;;;;;;14.60;10.90;;;6.30;99.90;;;;;;5066558;28;20495;-31
2022/12/05 12:16:30;;;;;;;15.77;12.37;;;6.20;99.90;;;;;;5066886;28;20207;-32
2022/12/05 12:19:14;;;;;;;17.27;13.10;;;6.30;99.90;;;;;;5066564;28;20191;-32
2022/12/05 12:21:53;;;;;;;14.63;11.83;;;6.30;99.90;;;;;;5066607;28;20204;-32
2022/12/05 12:24:44;;;;;;;13.40;11.20;;;6.30;99.90;;;;;;5066507;28;20223;-33
2022/12/05 12:27:22;;;;;;;15.80;12.00;;;6.30;99.90;;;;;;5067015;28;20188;-32
2022/12/05 12:29:58;;;;;;;15.10;11.53;;;6.40;99.90;;;;;;5066439;28;20204;-32
2022/12/05 12:33:05;;;;;;;17.03;12.80;;;6.40;99.90;;;;;;5064806;28;20203;-32
2022/12/05 12:35:50;;;;;;;16.70;12.40;;;6.40;99.90;;;;;;5065317;28;20184;-32
2022/12/05 12:38:38;;;;;;;16.47;12.77;;;6.40;99.90;;;;;;5065000;28;20222;-32
2022/12/05 12:41:55;;;;;;;17.13;13.07;;;6.30;99.90;;;;;;5066281;28;20206;-32
2022/12/05 12:44:47;;;;;;;17.63;13.73;;;6.30;99.90;;;;;;5056935;28;20329;-32
2022/12/05 12:47:38;;;;;;;15.97;12.37;;;6.30;99.90;;;;;;5066149;28;20778;-34
2022/12/05 12:50:24;;;;;;;16.57;12.43;;;6.30;99.90;;;;;;5065858;28;20239;-32
2022/12/05 12:52:54;;;;;;;14.50;11.43;;;6.30;99.90;;;;;;5065857;28;20195;-33
2022/12/05 12:55:46;;;;;;;16.03;11.60;;;6.40;99.90;;;;;;5065815;28;20384;-32
2022/12/05 12:58:45;;;;;;;13.50;11.23;;;6.40;99.90;;;;;;5064631;28;20668;-32
2022/12/05 13:01:38;;;;;;;16.37;12.30;;;6.40;99.90;;;;;;5066013;28;20195;-32
2022/12/05 13:04:16;;;;;;;15.87;11.90;;;6.50;99.90;;;;;;5065758;28;20711;-32
2022/12/05 13:06:51;;;;;;;15.23;12.07;;;6.50;99.90;;;;;;5065583;28;20216;-33
2022/12/05 13:09:26;;;;;;;15.70;12.10;;;6.50;99.90;;;;;;5066203;28;20571;-32
2022/12/05 13:11:54;;;;;;;14.97;12.43;;;6.50;99.90;;;;;;5064836;28;20248;-32
2022/12/05 13:14:26;;;;;;;17.60;13.37;;;6.50;99.90;;;;;;5066107;28;20207;-32
2022/12/05 13:16:55;;;;;;;17.83;13.30;;;6.50;99.90;;;;;;5064687;28;20204;-32
2022/12/05 13:19:23;;;;;;;14.80;12.37;;;6.50;99.90;;;;;;5067240;28;20283;-33
2022/12/05 13:21:51;;;;;;;17.63;13.40;;;6.40;99.90;;;;;;5069114;28;20219;-32